sensor_id;sensor_type;location;lat;lon;timestamp;P1;durP1;ratioP1;P2;durP2;ratioP2
28192;SDS011;15473;50.840;3.396;2022-11-15T00:01:08;31.15;;;16.45;;
28192;SDS011;15473;50.840;3.396;2022-11-15T00:03:42;65.17;;;36.70;;
28192;SDS011;15473;50.840;3.396;2022-11-15T00:06:12;43.45;;;24.12;;
28192;SDS011;15473;50.840;3.396;2022-11-15T00:08:42;33.75;;;19.27;;
28192;SDS011;15473;50.840;3.396;2022-11-15T00:11:14;31.05;;;19.17;;
28192;SDS011;15473;50.840;3.396;2022-11-15T00:13:44;28.62;;;15.65;;
28192;SDS011;15473;50.840;3.396;2022-11-15T00:16:14;29.32;;;15.50;;
28192;SDS011;15473;50.840;3.396;2022-11-15T00:18:48;23.80;;;12.37;;
28192;SDS011;15473;50.840;3.396;2022-11-15T00:21:19;21.35;;;13.65;;
28192;SDS011;15473;50.840;3.396;2022-11-15T00:23:51;24.70;;;12.13;;
28192;SDS011;15473;50.840;3.396;2022-11-15T00:26:21;16.73;;;10.50;;
28192;SDS011;15473;50.840;3.396;2022-11-15T00:28:53;21.57;;;10.53;;
28192;SDS011;15473;50.840;3.396;2022-11-15T00:31:23;18.48;;;10.90;;
28192;SDS011;15473;50.840;3.396;2022-11-15T00:33:53;17.37;;;10.25;;
28192;SDS011;15473;50.840;3.396;2022-11-15T00:36:23;20.62;;;10.25;;
28192;SDS011;15473;50.840;3.396;2022-11-15T00:38:53;17.32;;;10.55;;
28192;SDS011;15473;50.840;3.396;2022-11-15T00:41:23;15.72;;;9.50;;
28192;SDS011;15473;50.840;3.396;2022-11-15T00:43:55;17.00;;;8.70;;
28192;SDS011;15473;50.840;3.396;2022-11-15T00:46:25;18.82;;;9.45;;
28192;SDS011;15473;50.840;3.396;2022-11-15T00:48:55;19.85;;;9.05;;
28192;SDS011;15473;50.840;3.396;2022-11-15T00:51:25;18.80;;;8.95;;
28192;SDS011;15473;50.840;3.396;2022-11-15T00:53:55;16.30;;;8.33;;
28192;SDS011;15473;50.840;3.396;2022-11-15T00:56:25;17.48;;;8.05;;
28192;SDS011;15473;50.840;3.396;2022-11-15T00:58:55;20.55;;;9.48;;
28192;SDS011;15473;50.840;3.396;2022-11-15T01:01:25;15.00;;;9.13;;
28192;SDS011;15473;50.840;3.396;2022-11-15T01:03:56;20.68;;;9.38;;
28192;SDS011;15473;50.840;3.396;2022-11-15T01:06:27;11.63;;;8.15;;
28192;SDS011;15473;50.840;3.396;2022-11-15T01:08:57;18.67;;;8.45;;
28192;SDS011;15473;50.840;3.396;2022-11-15T01:11:27;16.73;;;8.05;;
28192;SDS011;15473;50.840;3.396;2022-11-15T01:13:57;18.15;;;7.67;;
28192;SDS011;15473;50.840;3.396;2022-11-15T01:16:28;15.55;;;6.97;;
28192;SDS011;15473;50.840;3.396;2022-11-15T01:18:58;14.53;;;7.37;;
28192;SDS011;15473;50.840;3.396;2022-11-15T01:21:40;12.07;;;6.62;;
28192;SDS011;15473;50.840;3.396;2022-11-15T01:24:13;10.15;;;6.60;;
28192;SDS011;15473;50.840;3.396;2022-11-15T01:26:49;13.75;;;6.53;;
28192;SDS011;15473;50.840;3.396;2022-11-15T01:29:21;11.95;;;6.10;;
28192;SDS011;15473;50.840;3.396;2022-11-15T01:31:52;10.93;;;6.53;;
28192;SDS011;15473;50.840;3.396;2022-11-15T01:34:22;13.08;;;6.65;;
28192;SDS011;15473;50.840;3.396;2022-11-15T01:36:55;9.03;;;6.05;;
28192;SDS011;15473;50.840;3.396;2022-11-15T01:39:25;15.85;;;5.58;;
28192;SDS011;15473;50.840;3.396;2022-11-15T01:42:02;11.88;;;5.22;;
28192;SDS011;15473;50.840;3.396;2022-11-15T01:44:51;10.58;;;5.47;;
28192;SDS011;15473;50.840;3.396;2022-11-15T01:47:28;12.18;;;4.85;;
28192;SDS011;15473;50.840;3.396;2022-11-15T01:50:00;12.28;;;5.67;;
28192;SDS011;15473;50.840;3.396;2022-11-15T01:52:34;8.73;;;5.70;;
28192;SDS011;15473;50.840;3.396;2022-11-15T01:55:13;10.88;;;5.78;;
28192;SDS011;15473;50.840;3.396;2022-11-15T01:57:47;9.20;;;5.75;;
28192;SDS011;15473;50.840;3.396;2022-11-15T02:00:19;11.08;;;5.42;;
28192;SDS011;15473;50.840;3.396;2022-11-15T02:02:49;14.83;;;5.40;;
28192;SDS011;15473;50.840;3.396;2022-11-15T02:05:20;11.75;;;5.83;;
28192;SDS011;15473;50.840;3.396;2022-11-15T02:07:50;19.32;;;8.43;;
28192;SDS011;15473;50.840;3.396;2022-11-15T02:10:27;12.63;;;5.30;;
28192;SDS011;15473;50.840;3.396;2022-11-15T02:12:57;19.27;;;5.95;;
28192;SDS011;15473;50.840;3.396;2022-11-15T02:15:37;8.95;;;4.97;;
28192;SDS011;15473;50.840;3.396;2022-11-15T02:20:43;9.03;;;4.50;;
28192;SDS011;15473;50.840;3.396;2022-11-15T02:23:31;7.55;;;4.30;;
28192;SDS011;15473;50.840;3.396;2022-11-15T02:31:41;8.53;;;4.10;;
28192;SDS011;15473;50.840;3.396;2022-11-15T02:39:51;5.62;;;3.35;;
28192;SDS011;15473;50.840;3.396;2022-11-15T02:42:32;5.25;;;3.15;;
28192;SDS011;15473;50.840;3.396;2022-11-15T02:45:30;6.62;;;3.60;;
28192;SDS011;15473;50.840;3.396;2022-11-15T02:48:09;9.15;;;3.67;;
28192;SDS011;15473;50.840;3.396;2022-11-15T02:50:41;7.03;;;3.60;;
28192;SDS011;15473;50.840;3.396;2022-11-15T02:53:14;6.08;;;3.70;;
28192;SDS011;15473;50.840;3.396;2022-11-15T02:55:46;11.57;;;4.17;;
28192;SDS011;15473;50.840;3.396;2022-11-15T02:58:23;9.60;;;3.65;;
28192;SDS011;15473;50.840;3.396;2022-11-15T03:04:30;8.15;;;3.62;;
28192;SDS011;15473;50.840;3.396;2022-11-15T03:07:08;5.70;;;3.20;;
28192;SDS011;15473;50.840;3.396;2022-11-15T03:09:51;4.55;;;3.20;;
28192;SDS011;15473;50.840;3.396;2022-11-15T03:12:35;6.80;;;3.70;;
28192;SDS011;15473;50.840;3.396;2022-11-15T03:18:08;11.53;;;3.92;;
28192;SDS011;15473;50.840;3.396;2022-11-15T03:20:36;13.78;;;4.60;;
28192;SDS011;15473;50.840;3.396;2022-11-15T03:23:13;13.70;;;4.90;;
28192;SDS011;15473;50.840;3.396;2022-11-15T03:25:45;5.67;;;3.92;;
28192;SDS011;15473;50.840;3.396;2022-11-15T03:28:20;12.90;;;3.47;;
28192;SDS011;15473;50.840;3.396;2022-11-15T03:30:52;10.95;;;4.53;;
28192;SDS011;15473;50.840;3.396;2022-11-15T03:33:24;12.18;;;4.50;;
28192;SDS011;15473;50.840;3.396;2022-11-15T03:35:57;5.53;;;4.00;;
28192;SDS011;15473;50.840;3.396;2022-11-15T03:38:29;6.87;;;4.58;;
28192;SDS011;15473;50.840;3.396;2022-11-15T03:41:03;11.05;;;4.45;;
28192;SDS011;15473;50.840;3.396;2022-11-15T03:43:44;8.23;;;4.15;;
28192;SDS011;15473;50.840;3.396;2022-11-15T03:49:02;7.15;;;4.05;;
28192;SDS011;15473;50.840;3.396;2022-11-15T03:51:35;7.58;;;4.28;;
28192;SDS011;15473;50.840;3.396;2022-11-15T03:54:05;9.60;;;5.20;;
28192;SDS011;15473;50.840;3.396;2022-11-15T03:56:35;14.63;;;4.62;;
28192;SDS011;15473;50.840;3.396;2022-11-15T03:59:05;11.22;;;5.35;;
28192;SDS011;15473;50.840;3.396;2022-11-15T04:01:35;10.18;;;5.55;;
28192;SDS011;15473;50.840;3.396;2022-11-15T04:04:05;8.48;;;4.60;;
28192;SDS011;15473;50.840;3.396;2022-11-15T04:06:35;14.45;;;4.47;;
28192;SDS011;15473;50.840;3.396;2022-11-15T04:09:05;8.00;;;4.12;;
28192;SDS011;15473;50.840;3.396;2022-11-15T04:11:36;7.40;;;3.75;;
28192;SDS011;15473;50.840;3.396;2022-11-15T04:14:07;8.05;;;4.35;;
28192;SDS011;15473;50.840;3.396;2022-11-15T04:16:37;8.25;;;3.90;;
28192;SDS011;15473;50.840;3.396;2022-11-15T04:19:07;6.55;;;3.92;;
28192;SDS011;15473;50.840;3.396;2022-11-15T04:22:01;8.75;;;3.58;;
28192;SDS011;15473;50.840;3.396;2022-11-15T04:24:51;4.05;;;3.30;;
28192;SDS011;15473;50.840;3.396;2022-11-15T04:27:27;4.92;;;2.98;;
28192;SDS011;15473;50.840;3.396;2022-11-15T04:29:59;8.70;;;4.03;;
28192;SDS011;15473;50.840;3.396;2022-11-15T04:32:29;8.73;;;3.27;;
28192;SDS011;15473;50.840;3.396;2022-11-15T04:34:59;11.33;;;3.33;;
28192;SDS011;15473;50.840;3.396;2022-11-15T04:37:29;7.55;;;2.98;;
28192;SDS011;15473;50.840;3.396;2022-11-15T04:39:59;5.60;;;2.77;;
28192;SDS011;15473;50.840;3.396;2022-11-15T04:42:36;7.90;;;3.15;;
28192;SDS011;15473;50.840;3.396;2022-11-15T04:45:06;7.40;;;3.10;;
28192;SDS011;15473;50.840;3.396;2022-11-15T04:47:36;7.67;;;4.12;;
28192;SDS011;15473;50.840;3.396;2022-11-15T04:50:13;4.83;;;2.95;;
28192;SDS011;15473;50.840;3.396;2022-11-15T04:53:04;3.72;;;2.60;;
28192;SDS011;15473;50.840;3.396;2022-11-15T04:55:34;7.08;;;2.62;;
28192;SDS011;15473;50.840;3.396;2022-11-15T04:58:11;6.80;;;2.33;;
28192;SDS011;15473;50.840;3.396;2022-11-15T05:00:43;5.35;;;2.37;;
28192;SDS011;15473;50.840;3.396;2022-11-15T05:03:13;8.43;;;3.00;;
28192;SDS011;15473;50.840;3.396;2022-11-15T05:06:05;9.85;;;2.55;;
28192;SDS011;15473;50.840;3.396;2022-11-15T05:08:35;9.40;;;3.67;;
28192;SDS011;15473;50.840;3.396;2022-11-15T05:11:05;6.00;;;3.35;;
28192;SDS011;15473;50.840;3.396;2022-11-15T05:13:35;8.10;;;2.80;;
28192;SDS011;15473;50.840;3.396;2022-11-15T05:16:07;4.72;;;2.55;;
28192;SDS011;15473;50.840;3.396;2022-11-15T05:18:38;6.35;;;2.70;;
28192;SDS011;15473;50.840;3.396;2022-11-15T05:21:13;5.20;;;2.60;;
28192;SDS011;15473;50.840;3.396;2022-11-15T05:23:50;4.97;;;2.70;;
28192;SDS011;15473;50.840;3.396;2022-11-15T05:26:20;9.75;;;3.00;;
28192;SDS011;15473;50.840;3.396;2022-11-15T05:28:55;5.83;;;2.80;;
28192;SDS011;15473;50.840;3.396;2022-11-15T05:31:26;5.55;;;2.60;;
28192;SDS011;15473;50.840;3.396;2022-11-15T05:33:57;5.17;;;2.90;;
28192;SDS011;15473;50.840;3.396;2022-11-15T05:36:37;5.33;;;3.00;;
28192;SDS011;15473;50.840;3.396;2022-11-15T05:39:09;9.23;;;3.50;;
28192;SDS011;15473;50.840;3.396;2022-11-15T05:41:40;7.92;;;3.75;;
28192;SDS011;15473;50.840;3.396;2022-11-15T05:44:19;9.90;;;3.80;;
28192;SDS011;15473;50.840;3.396;2022-11-15T05:46:53;12.23;;;5.10;;
28192;SDS011;15473;50.840;3.396;2022-11-15T05:49:26;14.23;;;4.35;;
28192;SDS011;15473;50.840;3.396;2022-11-15T05:52:16;13.18;;;5.15;;
28192;SDS011;15473;50.840;3.396;2022-11-15T05:54:49;16.10;;;5.75;;
28192;SDS011;15473;50.840;3.396;2022-11-15T05:57:21;17.45;;;5.12;;
28192;SDS011;15473;50.840;3.396;2022-11-15T05:59:56;18.85;;;5.90;;
28192;SDS011;15473;50.840;3.396;2022-11-15T06:02:26;11.00;;;5.55;;
28192;SDS011;15473;50.840;3.396;2022-11-15T06:04:56;12.30;;;4.80;;
28192;SDS011;15473;50.840;3.396;2022-11-15T06:07:27;15.15;;;6.08;;
28192;SDS011;15473;50.840;3.396;2022-11-15T06:10:05;13.05;;;5.53;;
28192;SDS011;15473;50.840;3.396;2022-11-15T06:12:37;36.33;;;13.15;;
28192;SDS011;15473;50.840;3.396;2022-11-15T06:15:07;22.40;;;11.50;;
28192;SDS011;15473;50.840;3.396;2022-11-15T06:17:37;13.00;;;8.28;;
28192;SDS011;15473;50.840;3.396;2022-11-15T06:20:07;32.05;;;11.30;;
28192;SDS011;15473;50.840;3.396;2022-11-15T06:22:38;15.80;;;8.18;;
28192;SDS011;15473;50.840;3.396;2022-11-15T06:25:08;11.12;;;6.10;;
28192;SDS011;15473;50.840;3.396;2022-11-15T06:27:50;13.05;;;7.05;;
28192;SDS011;15473;50.840;3.396;2022-11-15T06:30:26;24.05;;;13.40;;
28192;SDS011;15473;50.840;3.396;2022-11-15T06:33:04;12.98;;;6.60;;
28192;SDS011;15473;50.840;3.396;2022-11-15T06:35:35;27.30;;;10.45;;
28192;SDS011;15473;50.840;3.396;2022-11-15T06:38:09;25.52;;;15.03;;
28192;SDS011;15473;50.840;3.396;2022-11-15T06:40:40;27.82;;;12.35;;
28192;SDS011;15473;50.840;3.396;2022-11-15T06:43:16;23.15;;;10.23;;
28192;SDS011;15473;50.840;3.396;2022-11-15T06:45:46;23.32;;;9.30;;
28192;SDS011;15473;50.840;3.396;2022-11-15T06:48:19;19.92;;;9.30;;
28192;SDS011;15473;50.840;3.396;2022-11-15T06:50:50;33.28;;;16.55;;
28192;SDS011;15473;50.840;3.396;2022-11-15T06:53:21;21.55;;;8.65;;
28192;SDS011;15473;50.840;3.396;2022-11-15T06:56:02;21.57;;;10.08;;
28192;SDS011;15473;50.840;3.396;2022-11-15T06:58:34;26.87;;;10.05;;
28192;SDS011;15473;50.840;3.396;2022-11-15T07:01:11;20.75;;;9.18;;
28192;SDS011;15473;50.840;3.396;2022-11-15T07:03:39;24.35;;;9.68;;
28192;SDS011;15473;50.840;3.396;2022-11-15T07:06:36;17.92;;;9.03;;
28192;SDS011;15473;50.840;3.396;2022-11-15T07:09:12;14.75;;;5.78;;
28192;SDS011;15473;50.840;3.396;2022-11-15T07:11:49;14.93;;;7.00;;
28192;SDS011;15473;50.840;3.396;2022-11-15T07:14:26;14.73;;;7.60;;
28192;SDS011;15473;50.840;3.396;2022-11-15T07:16:56;12.98;;;4.60;;
28192;SDS011;15473;50.840;3.396;2022-11-15T07:19:26;7.25;;;4.33;;
28192;SDS011;15473;50.840;3.396;2022-11-15T07:22:03;7.45;;;4.70;;
28192;SDS011;15473;50.840;3.396;2022-11-15T07:24:34;5.05;;;3.77;;
28192;SDS011;15473;50.840;3.396;2022-11-15T07:27:04;8.88;;;4.58;;
28192;SDS011;15473;50.840;3.396;2022-11-15T07:29:38;9.30;;;4.25;;
28192;SDS011;15473;50.840;3.396;2022-11-15T07:32:08;9.08;;;4.58;;
28192;SDS011;15473;50.840;3.396;2022-11-15T07:34:39;8.15;;;4.47;;
28192;SDS011;15473;50.840;3.396;2022-11-15T07:37:09;8.23;;;4.53;;
28192;SDS011;15473;50.840;3.396;2022-11-15T07:39:39;10.25;;;4.90;;
28192;SDS011;15473;50.840;3.396;2022-11-15T07:42:09;11.10;;;5.42;;
28192;SDS011;15473;50.840;3.396;2022-11-15T07:44:57;5.42;;;3.67;;
28192;SDS011;15473;50.840;3.396;2022-11-15T07:47:28;7.65;;;5.30;;
28192;SDS011;15473;50.840;3.396;2022-11-15T07:50:04;5.85;;;4.25;;
28192;SDS011;15473;50.840;3.396;2022-11-15T07:52:34;11.60;;;4.87;;
28192;SDS011;15473;50.840;3.396;2022-11-15T07:55:10;9.40;;;4.83;;
28192;SDS011;15473;50.840;3.396;2022-11-15T07:57:45;8.23;;;4.47;;
28192;SDS011;15473;50.840;3.396;2022-11-15T08:00:15;7.78;;;4.03;;
28192;SDS011;15473;50.840;3.396;2022-11-15T08:02:49;9.98;;;3.65;;
28192;SDS011;15473;50.840;3.396;2022-11-15T08:05:23;11.35;;;3.55;;
28192;SDS011;15473;50.840;3.396;2022-11-15T08:07:55;10.13;;;4.42;;
28192;SDS011;15473;50.840;3.396;2022-11-15T08:10:25;20.37;;;5.42;;
28192;SDS011;15473;50.840;3.396;2022-11-15T08:12:57;10.28;;;5.65;;
28192;SDS011;15473;50.840;3.396;2022-11-15T08:15:35;7.78;;;3.45;;
28192;SDS011;15473;50.840;3.396;2022-11-15T08:18:06;6.87;;;3.55;;
28192;SDS011;15473;50.840;3.396;2022-11-15T08:20:44;3.77;;;2.90;;
28192;SDS011;15473;50.840;3.396;2022-11-15T08:23:20;5.95;;;2.72;;
28192;SDS011;15473;50.840;3.396;2022-11-15T08:25:52;9.05;;;2.52;;
28192;SDS011;15473;50.840;3.396;2022-11-15T08:28:31;6.28;;;3.62;;
28192;SDS011;15473;50.840;3.396;2022-11-15T08:31:18;9.13;;;2.80;;
28192;SDS011;15473;50.840;3.396;2022-11-15T08:33:47;7.22;;;3.75;;
28192;SDS011;15473;50.840;3.396;2022-11-15T08:36:17;3.90;;;2.10;;
28192;SDS011;15473;50.840;3.396;2022-11-15T08:38:49;4.42;;;2.95;;
28192;SDS011;15473;50.840;3.396;2022-11-15T08:41:28;5.45;;;2.02;;
28192;SDS011;15473;50.840;3.396;2022-11-15T08:44:05;7.90;;;2.47;;
28192;SDS011;15473;50.840;3.396;2022-11-15T08:46:35;7.72;;;2.30;;
28192;SDS011;15473;50.840;3.396;2022-11-15T08:49:05;4.08;;;1.92;;
28192;SDS011;15473;50.840;3.396;2022-11-15T08:51:35;7.62;;;2.33;;
28192;SDS011;15473;50.840;3.396;2022-11-15T08:54:05;4.22;;;2.25;;
28192;SDS011;15473;50.840;3.396;2022-11-15T08:56:42;7.60;;;2.70;;
28192;SDS011;15473;50.840;3.396;2022-11-15T08:59:19;7.17;;;1.60;;
28192;SDS011;15473;50.840;3.396;2022-11-15T09:01:55;9.45;;;2.10;;
28192;SDS011;15473;50.840;3.396;2022-11-15T09:04:25;9.90;;;4.22;;
28192;SDS011;15473;50.840;3.396;2022-11-15T09:06:59;7.22;;;1.70;;
28192;SDS011;15473;50.840;3.396;2022-11-15T09:09:29;6.62;;;2.37;;
28192;SDS011;15473;50.840;3.396;2022-11-15T09:11:59;5.55;;;2.20;;
28192;SDS011;15473;50.840;3.396;2022-11-15T09:14:29;8.35;;;1.60;;
28192;SDS011;15473;50.840;3.396;2022-11-15T09:16:59;3.47;;;1.77;;
28192;SDS011;15473;50.840;3.396;2022-11-15T09:19:29;4.37;;;1.45;;
28192;SDS011;15473;50.840;3.396;2022-11-15T09:22:00;9.38;;;2.67;;
28192;SDS011;15473;50.840;3.396;2022-11-15T09:24:31;6.42;;;2.25;;
28192;SDS011;15473;50.840;3.396;2022-11-15T09:27:07;4.92;;;2.70;;
28192;SDS011;15473;50.840;3.396;2022-11-15T09:29:43;6.90;;;2.17;;
28192;SDS011;15473;50.840;3.396;2022-11-15T09:32:20;4.28;;;1.67;;
28192;SDS011;15473;50.840;3.396;2022-11-15T09:34:58;12.65;;;3.52;;
28192;SDS011;15473;50.840;3.396;2022-11-15T09:37:28;7.22;;;3.00;;
28192;SDS011;15473;50.840;3.396;2022-11-15T09:40:02;12.85;;;2.52;;
28192;SDS011;15473;50.840;3.396;2022-11-15T09:45:28;6.92;;;2.67;;
28192;SDS011;15473;50.840;3.396;2022-11-15T09:50:56;5.70;;;2.72;;
28192;SDS011;15473;50.840;3.396;2022-11-15T09:53:47;3.50;;;1.87;;
28192;SDS011;15473;50.840;3.396;2022-11-15T09:56:30;8.15;;;1.90;;
28192;SDS011;15473;50.840;3.396;2022-11-15T10:04:40;5.62;;;1.82;;
28192;SDS011;15473;50.840;3.396;2022-11-15T10:10:15;3.02;;;1.60;;
28192;SDS011;15473;50.840;3.396;2022-11-15T10:12:53;4.40;;;1.87;;
28192;SDS011;15473;50.840;3.396;2022-11-15T10:15:23;2.40;;;1.80;;
28192;SDS011;15473;50.840;3.396;2022-11-15T10:17:57;6.30;;;1.85;;
28192;SDS011;15473;50.840;3.396;2022-11-15T10:20:42;2.98;;;1.60;;
28192;SDS011;15473;50.840;3.396;2022-11-15T10:23:15;6.60;;;1.70;;
28192;SDS011;15473;50.840;3.396;2022-11-15T10:25:47;6.75;;;1.70;;
28192;SDS011;15473;50.840;3.396;2022-11-15T10:30:59;8.05;;;1.62;;
28192;SDS011;15473;50.840;3.396;2022-11-15T10:47:03;4.40;;;1.82;;
28192;SDS011;15473;50.840;3.396;2022-11-15T10:49:31;4.83;;;1.98;;
28192;SDS011;15473;50.840;3.396;2022-11-15T10:52:15;11.38;;;2.00;;
28192;SDS011;15473;50.840;3.396;2022-11-15T10:54:46;29.00;;;13.18;;
28192;SDS011;15473;50.840;3.396;2022-11-15T10:57:24;9.75;;;3.55;;
28192;SDS011;15473;50.840;3.396;2022-11-15T10:59:59;7.75;;;2.70;;
28192;SDS011;15473;50.840;3.396;2022-11-15T11:02:34;5.93;;;3.30;;
28192;SDS011;15473;50.840;3.396;2022-11-15T11:05:30;6.22;;;2.87;;
28192;SDS011;15473;50.840;3.396;2022-11-15T11:10:56;4.00;;;2.37;;
28192;SDS011;15473;50.840;3.396;2022-11-15T11:13:28;8.00;;;2.47;;
28192;SDS011;15473;50.840;3.396;2022-11-15T11:16:20;7.22;;;2.27;;
28192;SDS011;15473;50.840;3.396;2022-11-15T11:33:32;6.65;;;3.12;;
28192;SDS011;15473;50.840;3.396;2022-11-15T11:39:06;4.47;;;2.35;;
28192;SDS011;15473;50.840;3.396;2022-11-15T11:41:43;9.23;;;4.87;;
28192;SDS011;15473;50.840;3.396;2022-11-15T11:44:36;2.47;;;1.22;;
28192;SDS011;15473;50.840;3.396;2022-11-15T11:47:20;3.10;;;1.90;;
28192;SDS011;15473;50.840;3.396;2022-11-15T11:50:36;10.78;;;2.20;;
28192;SDS011;15473;50.840;3.396;2022-11-15T11:52:37;6.15;;;2.02;;
28192;SDS011;15473;50.840;3.396;2022-11-15T11:58:15;8.98;;;2.65;;
28192;SDS011;15473;50.840;3.396;2022-11-15T12:03:28;5.50;;;2.45;;
28192;SDS011;15473;50.840;3.396;2022-11-15T12:06:02;7.35;;;2.40;;
28192;SDS011;15473;50.840;3.396;2022-11-15T12:08:58;7.53;;;2.08;;
28192;SDS011;15473;50.840;3.396;2022-11-15T12:14:25;6.40;;;1.80;;
28192;SDS011;15473;50.840;3.396;2022-11-15T12:17:01;3.58;;;1.90;;
28192;SDS011;15473;50.840;3.396;2022-11-15T12:19:31;8.40;;;1.70;;
28192;SDS011;15473;50.840;3.396;2022-11-15T12:22:15;4.33;;;1.90;;
28192;SDS011;15473;50.840;3.396;2022-11-15T12:24:43;5.60;;;2.22;;
28192;SDS011;15473;50.840;3.396;2022-11-15T12:27:32;7.60;;;2.92;;
28192;SDS011;15473;50.840;3.396;2022-11-15T12:30:31;4.28;;;2.37;;
28192;SDS011;15473;50.840;3.396;2022-11-15T12:33:32;7.22;;;4.03;;
28192;SDS011;15473;50.840;3.396;2022-11-15T12:39:03;9.48;;;1.90;;
28192;SDS011;15473;50.840;3.396;2022-11-15T12:49:53;8.13;;;2.90;;
28192;SDS011;15473;50.840;3.396;2022-11-15T12:52:23;4.90;;;1.80;;
28192;SDS011;15473;50.840;3.396;2022-11-15T12:54:54;9.95;;;7.40;;
28192;SDS011;15473;50.840;3.396;2022-11-15T12:57:27;3.72;;;2.50;;
28192;SDS011;15473;50.840;3.396;2022-11-15T13:00:05;6.65;;;3.60;;
28192;SDS011;15473;50.840;3.396;2022-11-15T13:02:43;8.50;;;3.45;;
28192;SDS011;15473;50.840;3.396;2022-11-15T13:07:57;5.25;;;2.15;;
28192;SDS011;15473;50.840;3.396;2022-11-15T13:10:33;4.97;;;2.75;;
28192;SDS011;15473;50.840;3.396;2022-11-15T13:13:06;7.47;;;3.60;;
28192;SDS011;15473;50.840;3.396;2022-11-15T13:15:58;6.08;;;2.22;;
28192;SDS011;15473;50.840;3.396;2022-11-15T13:18:34;3.67;;;2.35;;
28192;SDS011;15473;50.840;3.396;2022-11-15T13:21:01;4.10;;;2.05;;
28192;SDS011;15473;50.840;3.396;2022-11-15T13:23:38;7.62;;;3.30;;
28192;SDS011;15473;50.840;3.396;2022-11-15T13:26:10;6.10;;;3.40;;
28192;SDS011;15473;50.840;3.396;2022-11-15T13:31:30;5.67;;;2.55;;
28192;SDS011;15473;50.840;3.396;2022-11-15T13:36:57;5.08;;;2.15;;
28192;SDS011;15473;50.840;3.396;2022-11-15T13:39:28;2.60;;;1.70;;
28192;SDS011;15473;50.840;3.396;2022-11-15T13:41:59;5.58;;;2.37;;
28192;SDS011;15473;50.840;3.396;2022-11-15T13:44:31;2.27;;;1.77;;
28192;SDS011;15473;50.840;3.396;2022-11-15T13:47:06;3.60;;;1.90;;
28192;SDS011;15473;50.840;3.396;2022-11-15T13:49:43;3.12;;;1.95;;
28192;SDS011;15473;50.840;3.396;2022-11-15T13:52:14;5.90;;;1.77;;
28192;SDS011;15473;50.840;3.396;2022-11-15T13:54:47;4.15;;;2.17;;
28192;SDS011;15473;50.840;3.396;2022-11-15T13:57:24;3.83;;;2.02;;
28192;SDS011;15473;50.840;3.396;2022-11-15T13:59:59;3.58;;;1.70;;
28192;SDS011;15473;50.840;3.396;2022-11-15T14:02:34;2.80;;;1.30;;
28192;SDS011;15473;50.840;3.396;2022-11-15T14:05:13;8.70;;;1.98;;
28192;SDS011;15473;50.840;3.396;2022-11-15T14:07:57;2.98;;;1.40;;
28192;SDS011;15473;50.840;3.396;2022-11-15T14:10:29;1.40;;;1.30;;
28192;SDS011;15473;50.840;3.396;2022-11-15T14:13:02;1.55;;;1.42;;
28192;SDS011;15473;50.840;3.396;2022-11-15T14:15:37;3.05;;;1.42;;
28192;SDS011;15473;50.840;3.396;2022-11-15T14:18:38;2.83;;;1.80;;
28192;SDS011;15473;50.840;3.396;2022-11-15T14:20:42;26.20;;;8.43;;
